Time;durP1;ratioP1;P1;durP2;ratioP2;P2;SDS_P1;SDS_P2;PMS_P1;PMS_P2;Temp;Humidity;BMP_temperature;BMP_pressure;BME280_temperature;BME280_humidity;BME280_pressure;Samples;Min_cycle;Max_cycle;Signal;HPM_P1;HPM_P2
2021/07/18 00:01:05;;;;;;;30.50;17.33;;;18.90;99.90;;;;;;5104996;27;20403;-63
2021/07/18 00:03:30;;;;;;;24.52;16.52;;;18.90;99.90;;;;;;5071393;28;20394;-62
2021/07/18 00:05:56;;;;;;;27.60;16.27;;;18.90;99.90;;;;;;5072007;28;20869;-61
2021/07/18 00:08:22;;;;;;;28.27;16.85;;;18.80;99.90;;;;;;5072918;28;20395;-63
2021/07/18 00:10:52;;;;;;;26.83;17.00;;;18.80;99.90;;;;;;5085385;28;20427;-63
2021/07/18 00:13:19;;;;;;;29.60;18.30;;;18.70;99.90;;;;;;5071223;28;20383;-59
2021/07/18 00:15:45;;;;;;;28.42;16.95;;;18.60;99.90;;;;;;5083804;28;20424;-63
2021/07/18 00:18:11;;;;;;;30.20;17.70;;;18.50;99.90;;;;;;5087531;28;21006;-63
2021/07/18 00:20:37;;;;;;;31.85;17.67;;;18.50;99.90;;;;;;5086844;28;20484;-62
2021/07/18 00:23:04;;;;;;;30.45;18.15;;;18.40;99.90;;;;;;5083172;28;20480;-62
2021/07/18 00:25:32;;;;;;;30.02;17.83;;;18.40;99.90;;;;;;5091137;28;20458;-63
2021/07/18 00:28:01;;;;;;;25.92;16.80;;;18.30;99.90;;;;;;5089953;28;20386;-62
2021/07/18 00:30:26;;;;;;;29.70;17.27;;;18.20;99.90;;;;;;5090541;28;20387;-62
2021/07/18 00:32:53;;;;;;;26.30;16.73;;;18.20;99.90;;;;;;5092189;28;20369;-62
2021/07/18 00:35:19;;;;;;;26.05;16.00;;;18.10;99.90;;;;;;5091379;28;20425;-58
2021/07/18 00:37:45;;;;;;;25.83;15.40;;;18.10;99.90;;;;;;5092255;28;20883;-63
2021/07/18 00:40:11;;;;;;;21.73;14.30;;;18.60;99.90;;;;;;5092006;28;20378;-62
2021/07/18 00:42:37;;;;;;;22.27;14.40;;;18.10;99.90;;;;;;5090965;28;20385;-62
2021/07/18 00:45:07;;;;;;;25.00;13.90;;;18.10;99.90;;;;;;5092070;28;20425;-62
2021/07/18 00:47:37;;;;;;;21.57;13.10;;;17.00;99.90;;;;;;5091111;28;20474;-63
2021/07/18 00:50:12;;;;;;;18.80;13.40;;;18.20;99.90;;;;;;5090672;28;20385;-64
2021/07/18 00:52:38;;;;;;;19.63;12.38;;;18.10;99.90;;;;;;5091032;28;20389;-62
2021/07/18 00:55:06;;;;;;;19.20;12.57;;;18.20;99.90;;;;;;5073324;28;20400;-62
2021/07/18 00:57:33;;;;;;;23.00;12.38;;;18.10;99.90;;;;;;5083930;28;20454;-63
2021/07/18 01:00:01;;;;;;;19.27;12.40;;;18.10;99.90;;;;;;5090627;28;20405;-62
2021/07/18 01:02:27;;;;;;;20.55;12.32;;;18.10;99.90;;;;;;5070835;28;20379;-62
2021/07/18 01:04:53;;;;;;;18.80;11.85;;;18.00;99.90;;;;;;5071355;28;20380;-62
2021/07/18 01:07:19;;;;;;;17.63;10.25;;;18.00;99.90;;;;;;5080347;28;21009;-59
2021/07/18 01:09:44;;;;;;;19.40;11.10;;;18.00;99.90;;;;;;5091501;28;20415;-62
2021/07/18 01:12:10;;;;;;;15.37;9.20;;;18.00;99.90;;;;;;5091552;28;20700;-63
2021/07/18 01:14:36;;;;;;;13.73;9.20;;;17.90;99.90;;;;;;5090725;28;20615;-62
2021/07/18 01:17:02;;;;;;;19.13;10.00;;;17.90;99.90;;;;;;5091053;28;20402;-62
2021/07/18 01:19:30;;;;;;;18.00;9.00;;;18.00;99.90;;;;;;5088679;28;20392;-61
2021/07/18 01:22:02;;;;;;;15.30;9.10;;;18.00;99.90;;;;;;5070959;28;20872;-61
2021/07/18 01:24:29;;;;;;;13.27;8.60;;;18.00;99.90;;;;;;5070027;28;20387;-61
2021/07/18 01:26:56;;;;;;;15.57;9.05;;;18.00;99.90;;;;;;5070613;28;20379;-62
2021/07/18 01:29:22;;;;;;;13.32;8.45;;;17.90;99.90;;;;;;5069876;28;20391;-61
2021/07/18 01:31:49;;;;;;;17.85;9.20;;;17.90;99.90;;;;;;5079353;28;20426;-62
2021/07/18 01:34:15;;;;;;;12.35;9.00;;;17.90;99.90;;;;;;5077168;28;20376;-62
2021/07/18 01:36:41;;;;;;;17.08;7.93;;;17.90;99.90;;;;;;5069853;28;20420;-62
2021/07/18 01:39:09;;;;;;;14.47;8.20;;;17.90;99.90;;;;;;5070919;28;20416;-63
2021/07/18 01:41:35;;;;;;;13.40;8.00;;;17.90;99.90;;;;;;5069991;28;20468;-62
2021/07/18 01:44:02;;;;;;;12.20;7.80;;;17.90;99.90;;;;;;5070478;28;20379;-62
2021/07/18 01:46:30;;;;;;;15.50;7.60;;;17.90;99.90;;;;;;5069901;28;20423;-62
2021/07/18 01:48:57;;;;;;;14.25;8.60;;;17.90;99.90;;;;;;5070537;28;20403;-62
2021/07/18 01:51:24;;;;;;;12.40;7.57;;;17.80;99.90;;;;;;5069593;28;20541;-62
2021/07/18 01:53:54;;;;;;;13.20;7.57;;;17.80;99.90;;;;;;5081151;28;20753;-64
2021/07/18 01:56:20;;;;;;;13.57;7.30;;;17.80;99.90;;;;;;5090263;28;20394;-58
2021/07/18 01:58:48;;;;;;;14.27;7.30;;;17.80;99.90;;;;;;5090035;28;20876;-62
2021/07/18 02:01:15;;;;;;;13.15;7.40;;;17.80;99.90;;;;;;5083199;28;20383;-62
2021/07/18 02:03:41;;;;;;;14.38;6.78;;;17.80;99.90;;;;;;5069499;28;20729;-62
2021/07/18 02:06:07;;;;;;;11.75;6.47;;;17.90;99.90;;;;;;5069583;28;20396;-62
2021/07/18 02:08:32;;;;;;;11.60;6.40;;;17.90;99.90;;;;;;5069204;28;20927;-62
2021/07/18 02:10:58;;;;;;;11.52;6.55;;;18.00;99.90;;;;;;5084428;28;20390;-63
2021/07/18 02:13:23;;;;;;;11.67;6.63;;;17.90;99.90;;;;;;5089467;28;20431;-62
2021/07/18 02:15:49;;;;;;;11.90;7.03;;;17.90;99.90;;;;;;5090121;28;20381;-63
2021/07/18 02:18:15;;;;;;;10.40;6.50;;;17.80;99.90;;;;;;5089730;28;20410;-62
2021/07/18 02:20:42;;;;;;;13.83;6.43;;;17.80;99.90;;;;;;5089068;28;20459;-62
2021/07/18 02:23:08;;;;;;;12.02;7.00;;;17.70;99.90;;;;;;5084902;28;20895;-62
2021/07/18 02:25:34;;;;;;;13.48;7.20;;;17.70;99.90;;;;;;5087033;28;20485;-63
2021/07/18 02:28:00;;;;;;;13.20;6.67;;;17.60;99.90;;;;;;5090286;28;20382;-62
2021/07/18 02:30:29;;;;;;;14.20;6.60;;;17.60;99.90;;;;;;5089291;28;20381;-62
2021/07/18 02:32:55;;;;;;;10.30;6.25;;;17.50;99.90;;;;;;5072439;28;20882;-63
2021/07/18 02:35:22;;;;;;;13.32;7.05;;;17.50;99.90;;;;;;5067788;28;20441;-57
2021/07/18 02:37:49;;;;;;;13.73;7.97;;;17.40;99.90;;;;;;5069660;28;20408;-62
2021/07/18 02:40:16;;;;;;;13.20;7.43;;;17.30;99.90;;;;;;5069842;28;20473;-63
2021/07/18 02:42:41;;;;;;;15.73;8.00;;;17.20;99.90;;;;;;5068524;28;20952;-62
2021/07/18 02:45:09;;;;;;;15.82;8.90;;;17.10;99.90;;;;;;5069357;28;20376;-63
2021/07/18 02:47:35;;;;;;;18.88;9.13;;;17.00;99.90;;;;;;5068951;28;20402;-62
2021/07/18 02:50:03;;;;;;;18.88;10.68;;;16.90;99.90;;;;;;5069549;28;20737;-63
2021/07/18 02:52:29;;;;;;;18.05;10.02;;;16.80;99.90;;;;;;5068677;28;20383;-62
2021/07/18 02:54:55;;;;;;;22.63;11.10;;;16.70;99.90;;;;;;5070067;28;20406;-63
2021/07/18 02:57:21;;;;;;;23.27;11.60;;;16.60;99.90;;;;;;5069125;28;20407;-57
2021/07/18 02:59:47;;;;;;;25.73;12.38;;;16.60;99.90;;;;;;5069185;28;20522;-63
2021/07/18 03:02:12;;;;;;;22.25;11.57;;;16.50;99.90;;;;;;5069809;28;20380;-63
2021/07/18 03:04:38;;;;;;;23.03;12.23;;;16.50;99.90;;;;;;5068573;28;20414;-62
2021/07/18 03:07:04;;;;;;;20.98;12.00;;;16.50;99.90;;;;;;5069616;28;20396;-62
2021/07/18 03:09:29;;;;;;;21.60;11.55;;;16.40;99.90;;;;;;5068727;28;20447;-62
2021/07/18 03:11:55;;;;;;;22.40;11.60;;;16.30;99.90;;;;;;5069515;28;20738;-62
2021/07/18 03:14:21;;;;;;;20.60;11.68;;;16.30;99.90;;;;;;5068791;28;20388;-58
2021/07/18 03:16:50;;;;;;;17.90;10.93;;;16.30;99.90;;;;;;5068864;28;20838;-63
2021/07/18 03:19:16;;;;;;;21.73;9.90;;;16.30;99.90;;;;;;5069100;28;20530;-63
2021/07/18 03:21:42;;;;;;;19.75;9.68;;;16.30;99.90;;;;;;5068635;28;20453;-63
2021/07/18 03:24:08;;;;;;;19.15;11.25;;;16.30;99.90;;;;;;5069382;28;20487;-63
2021/07/18 03:26:34;;;;;;;22.40;10.60;;;16.30;99.90;;;;;;5068632;28;20391;-64
2021/07/18 03:29:00;;;;;;;18.00;10.13;;;16.30;99.90;;;;;;5069371;28;20372;-64
2021/07/18 03:31:26;;;;;;;16.83;10.33;;;16.20;99.90;;;;;;5070972;28;20384;-64
2021/07/18 03:33:51;;;;;;;15.65;9.90;;;16.10;99.90;;;;;;5055371;28;20388;-63
2021/07/18 03:36:17;;;;;;;17.00;9.00;;;16.00;99.90;;;;;;5073176;28;20392;-63
2021/07/18 03:38:42;;;;;;;18.45;9.88;;;15.90;99.90;;;;;;5072257;28;20735;-63
2021/07/18 03:41:08;;;;;;;16.37;8.67;;;15.80;99.90;;;;;;5073001;28;20384;-63
2021/07/18 03:43:34;;;;;;;19.10;8.33;;;15.80;99.90;;;;;;5072116;28;20742;-62
2021/07/18 03:46:00;;;;;;;17.35;9.20;;;15.80;99.90;;;;;;5073173;28;20429;-63
2021/07/18 03:48:25;;;;;;;13.90;8.27;;;15.90;99.90;;;;;;5072241;28;20383;-63
2021/07/18 03:50:52;;;;;;;13.77;7.93;;;16.00;99.90;;;;;;5072519;28;20376;-63
2021/07/18 03:53:17;;;;;;;15.68;7.70;;;16.10;99.90;;;;;;5072951;28;20376;-63
2021/07/18 03:55:43;;;;;;;12.40;7.23;;;16.00;99.90;;;;;;5071942;28;20456;-63
2021/07/18 03:58:09;;;;;;;12.50;7.10;;;16.00;99.90;;;;;;5072844;28;20873;-61
2021/07/18 04:00:35;;;;;;;12.57;6.75;;;16.00;99.90;;;;;;5071893;28;20406;-63
2021/07/18 04:03:01;;;;;;;11.17;7.30;;;16.00;99.90;;;;;;5072693;28;20845;-63
2021/07/18 04:05:26;;;;;;;15.27;7.70;;;16.00;99.90;;;;;;5072215;28;20573;-63
2021/07/18 04:07:52;;;;;;;12.90;7.20;;;16.10;99.90;;;;;;5072695;28;20386;-63
2021/07/18 04:10:18;;;;;;;17.30;7.70;;;16.10;99.90;;;;;;5072596;28;20412;-65
2021/07/18 04:12:44;;;;;;;15.43;7.28;;;16.20;99.90;;;;;;5072229;28;21093;-63
2021/07/18 04:15:11;;;;;;;14.55;7.43;;;16.20;99.90;;;;;;5072406;28;20379;-63
2021/07/18 04:17:36;;;;;;;14.85;6.90;;;16.30;99.90;;;;;;5071106;28;20415;-63
2021/07/18 04:20:04;;;;;;;13.33;7.20;;;16.40;99.90;;;;;;5072597;28;20776;-63
2021/07/18 04:22:29;;;;;;;13.10;6.88;;;16.50;99.90;;;;;;5071469;28;20474;-63
2021/07/18 04:24:55;;;;;;;12.80;6.75;;;16.50;99.90;;;;;;5072233;28;20467;-63
2021/07/18 04:27:21;;;;;;;13.60;6.80;;;16.60;99.90;;;;;;5072271;28;20419;-63
2021/07/18 04:29:46;;;;;;;13.45;7.10;;;16.70;99.90;;;;;;5071447;28;20467;-63
2021/07/18 04:32:12;;;;;;;12.68;6.85;;;16.80;99.90;;;;;;5072114;28;20430;-63
2021/07/18 04:34:42;;;;;;;10.00;6.07;;;17.00;99.90;;;;;;5071372;28;20376;-63
2021/07/18 04:37:08;;;;;;;14.75;6.85;;;17.10;99.90;;;;;;5071530;28;20434;-62
2021/07/18 04:39:34;;;;;;;13.52;6.40;;;17.20;99.90;;;;;;5071182;28;20440;-63
2021/07/18 04:42:00;;;;;;;12.43;6.30;;;17.40;99.90;;;;;;5071387;28;20474;-63
2021/07/18 04:44:26;;;;;;;12.30;6.07;;;17.50;99.90;;;;;;5070962;28;20481;-63
2021/07/18 04:46:54;;;;;;;10.67;5.40;;;17.60;99.90;;;;;;5071626;28;20392;-63
2021/07/18 04:49:21;;;;;;;10.83;5.40;;;17.70;99.90;;;;;;5071929;28;20487;-63
2021/07/18 04:51:46;;;;;;;10.82;5.25;;;17.80;99.90;;;;;;5070978;28;20383;-63
2021/07/18 04:54:12;;;;;;;12.65;5.47;;;17.90;99.90;;;;;;5071552;28;20702;-63
2021/07/18 04:56:38;;;;;;;9.43;4.95;;;17.90;99.90;;;;;;5070855;28;20457;-63
2021/07/18 04:59:04;;;;;;;11.95;5.95;;;17.90;99.90;;;;;;5071555;28;20453;-63
2021/07/18 05:01:30;;;;;;;9.80;5.10;;;17.90;99.90;;;;;;5070540;28;20382;-63
2021/07/18 05:03:56;;;;;;;9.90;4.50;;;18.20;99.90;;;;;;5071336;28;20383;-60
2021/07/18 05:06:21;;;;;;;9.90;4.40;;;18.90;99.90;;;;;;5071325;28;20486;-60
2021/07/18 05:08:47;;;;;;;9.98;4.82;;;19.90;99.90;;;;;;5069516;28;20853;-63
2021/07/18 05:11:12;;;;;;;11.60;4.28;;;21.10;99.90;;;;;;5071503;28;20415;-63
2021/07/18 05:13:38;;;;;;;8.05;4.60;;;21.90;99.90;;;;;;5070382;28;20960;-63
2021/07/18 05:16:04;;;;;;;7.90;4.50;;;22.70;99.90;;;;;;5071115;28;20376;-61
2021/07/18 05:18:29;;;;;;;8.80;4.10;;;23.50;99.90;;;;;;5070065;28;20750;-61
2021/07/18 05:20:55;;;;;;;8.60;4.27;;;24.50;99.90;;;;;;5070771;28;20390;-61
2021/07/18 05:23:21;;;;;;;8.93;3.63;;;25.20;99.90;;;;;;5071055;28;20846;-65
2021/07/18 05:25:46;;;;;;;7.60;4.33;;;26.50;99.90;;;;;;5070061;28;20462;-64
2021/07/18 05:28:12;;;;;;;8.37;5.80;;;27.40;99.90;;;;;;5070740;28;20508;-64
2021/07/18 05:30:38;;;;;;;8.73;7.00;;;27.70;99.70;;;;;;5069856;28;20455;-63
2021/07/18 05:33:03;;;;;;;7.40;6.60;;;27.80;97.40;;;;;;5071054;28;20478;-64
2021/07/18 05:35:29;;;;;;;10.07;7.70;;;27.70;97.00;;;;;;5069986;28;20537;-63
2021/07/18 05:37:55;;;;;;;7.13;2.97;;;27.90;96.60;;;;;;5071067;28;20466;-64
2021/07/18 05:40:20;;;;;;;8.60;3.40;;;28.10;94.90;;;;;;5070943;28;20926;-64
2021/07/18 05:42:46;;;;;;;8.93;3.00;;;28.60;93.70;;;;;;5069951;28;20380;-64
2021/07/18 05:45:13;;;;;;;6.40;3.10;;;28.80;92.80;;;;;;5070935;28;20718;-63
2021/07/18 05:47:39;;;;;;;9.80;3.25;;;29.00;91.90;;;;;;5069505;28;20380;-64
2021/07/18 05:50:08;;;;;;;6.90;3.03;;;29.00;90.80;;;;;;5073077;28;20413;-61
2021/07/18 05:52:34;;;;;;;7.90;3.45;;;29.40;90.80;;;;;;5083377;28;20440;-63
2021/07/18 05:55:00;;;;;;;6.35;2.78;;;29.90;86.50;;;;;;5089263;28;20386;-61
2021/07/18 05:57:25;;;;;;;8.50;2.90;;;29.30;89.30;;;;;;5089243;28;20409;-57
2021/07/18 05:59:51;;;;;;;7.07;4.37;;;29.80;87.20;;;;;;5089835;28;20427;-61
2021/07/18 06:02:17;;;;;;;7.23;3.20;;;29.90;84.60;;;;;;5089701;28;20484;-61
2021/07/18 06:04:43;;;;;;;6.60;3.00;;;30.00;85.10;;;;;;5087755;28;20382;-61
2021/07/18 06:07:09;;;;;;;8.10;2.90;;;30.00;80.40;;;;;;5089907;28;20466;-61
2021/07/18 06:09:34;;;;;;;6.70;2.50;;;30.00;79.90;;;;;;5089232;28;20509;-61
2021/07/18 06:12:00;;;;;;;6.90;2.60;;;29.60;79.10;;;;;;5089972;28;20397;-61
2021/07/18 06:14:26;;;;;;;6.50;3.60;;;30.00;79.40;;;;;;5089451;28;20382;-57
2021/07/18 06:16:51;;;;;;;5.97;3.07;;;29.60;79.40;;;;;;5089562;28;20461;-64
2021/07/18 06:19:17;;;;;;;7.57;2.33;;;29.00;78.80;;;;;;5089758;28;20378;-64
2021/07/18 06:21:43;;;;;;;6.70;2.00;;;29.00;80.50;;;;;;5088976;28;20572;-63
2021/07/18 06:24:09;;;;;;;8.30;2.70;;;29.10;81.30;;;;;;5086246;28;20381;-63
2021/07/18 06:26:36;;;;;;;7.20;2.05;;;29.50;79.60;;;;;;5084559;28;20441;-63
2021/07/18 06:29:01;;;;;;;6.30;2.00;;;29.00;78.30;;;;;;5089928;28;20385;-63
2021/07/18 06:31:27;;;;;;;7.10;2.70;;;29.20;79.00;;;;;;5088254;28;20421;-57
2021/07/18 06:33:53;;;;;;;9.07;2.20;;;29.50;78.20;;;;;;5088320;28;20401;-61
2021/07/18 06:36:19;;;;;;;8.52;2.28;;;30.10;76.40;;;;;;5089590;28;20476;-61
2021/07/18 06:38:45;;;;;;;8.93;2.83;;;30.90;73.20;;;;;;5087695;28;20406;-63
2021/07/18 06:41:11;;;;;;;7.70;2.70;;;31.10;72.70;;;;;;5086426;28;20442;-62
2021/07/18 06:43:36;;;;;;;8.75;2.92;;;32.40;70.80;;;;;;5084183;28;20437;-65
2021/07/18 06:46:02;;;;;;;6.18;2.58;;;33.00;67.20;;;;;;5089344;28;20847;-64
2021/07/18 06:48:28;;;;;;;6.40;2.28;;;32.80;64.80;;;;;;5087218;28;20759;-57
2021/07/18 06:50:54;;;;;;;6.10;2.80;;;31.30;68.80;;;;;;5088394;28;20382;-61
2021/07/18 06:53:19;;;;;;;6.20;2.60;;;30.80;70.50;;;;;;5089125;28;20844;-61
2021/07/18 06:55:45;;;;;;;5.80;2.50;;;31.10;71.40;;;;;;5088799;28;20382;-63
2021/07/18 06:58:11;;;;;;;6.00;2.20;;;31.50;69.80;;;;;;5089107;28;20406;-62
2021/07/18 07:00:36;;;;;;;5.57;1.60;;;31.30;68.60;;;;;;5088766;28;20530;-57
2021/07/18 07:03:03;;;;;;;5.88;2.20;;;30.50;70.40;;;;;;5087405;28;20394;-57
2021/07/18 07:05:28;;;;;;;7.20;1.80;;;30.70;70.40;;;;;;5087913;28;20400;-60
2021/07/18 07:07:54;;;;;;;9.90;1.90;;;31.40;67.70;;;;;;5088178;28;20390;-58
2021/07/18 07:10:20;;;;;;;6.95;2.13;;;31.60;68.50;;;;;;5089114;28;20774;-57
2021/07/18 07:12:47;;;;;;;6.10;1.87;;;32.20;64.90;;;;;;5088246;28;20439;-57
2021/07/18 07:15:13;;;;;;;5.63;2.10;;;31.70;66.60;;;;;;5089127;28;20386;-58
2021/07/18 07:17:39;;;;;;;8.18;2.22;;;32.20;65.80;;;;;;5085032;28;20485;-60
2021/07/18 07:20:06;;;;;;;5.47;2.17;;;32.20;64.00;;;;;;5087511;28;20509;-58
2021/07/18 07:22:35;;;;;;;7.43;2.25;;;31.90;66.30;;;;;;5088112;28;20382;-58
2021/07/18 07:25:03;;;;;;;6.07;2.88;;;31.70;65.00;;;;;;5088468;28;20378;-57
2021/07/18 07:27:28;;;;;;;6.63;3.58;;;30.90;66.40;;;;;;5085438;28;20390;-60
2021/07/18 07:29:54;;;;;;;6.13;3.60;;;31.20;66.70;;;;;;5087424;28;20501;-57
2021/07/18 07:32:20;;;;;;;6.95;1.70;;;31.80;65.30;;;;;;5088644;28;20867;-58
2021/07/18 07:34:46;;;;;;;6.50;1.80;;;32.20;64.40;;;;;;5087717;28;20378;-58
2021/07/18 07:37:12;;;;;;;7.95;2.38;;;32.30;65.10;;;;;;5088024;28;20413;-59
2021/07/18 07:39:40;;;;;;;6.10;2.15;;;33.30;61.90;;;;;;5079784;28;20951;-59
2021/07/18 07:42:06;;;;;;;5.72;2.30;;;33.70;60.60;;;;;;5088574;28;20464;-58
2021/07/18 07:44:32;;;;;;;9.30;2.50;;;32.60;62.40;;;;;;5087607;28;20786;-59
2021/07/18 07:46:58;;;;;;;5.60;2.00;;;32.80;62.60;;;;;;5086036;28;20445;-58
2021/07/18 07:49:23;;;;;;;6.83;2.20;;;31.60;64.70;;;;;;5088531;28;20914;-58
2021/07/18 07:51:49;;;;;;;6.00;2.33;;;31.70;64.20;;;;;;5087657;28;20374;-59
2021/07/18 07:54:15;;;;;;;7.00;2.10;;;31.60;66.10;;;;;;5088588;28;20385;-58
2021/07/18 07:56:40;;;;;;;5.90;2.40;;;32.60;65.40;;;;;;5087906;28;20497;-59
2021/07/18 07:59:07;;;;;;;7.13;2.40;;;33.60;61.70;;;;;;5088590;28;20378;-59
2021/07/18 08:01:33;;;;;;;6.30;1.80;;;33.90;59.60;;;;;;5087710;28;20389;-59
2021/07/18 08:03:58;;;;;;;6.67;2.80;;;33.80;60.50;;;;;;5090038;28;20726;-60
2021/07/18 08:06:24;;;;;;;5.60;2.35;;;33.30;60.00;;;;;;5090737;28;20400;-59
2021/07/18 08:08:50;;;;;;;7.45;2.17;;;33.20;61.60;;;;;;5087459;28;20433;-59
2021/07/18 08:11:16;;;;;;;6.60;2.30;;;33.40;60.80;;;;;;5088588;28;20406;-58
2021/07/18 08:13:42;;;;;;;6.10;2.00;;;33.50;61.10;;;;;;5087165;28;20385;-58
2021/07/18 08:16:08;;;;;;;8.60;2.92;;;33.10;61.80;;;;;;5088425;28;20386;-58
2021/07/18 08:18:35;;;;;;;6.63;2.40;;;33.30;61.50;;;;;;5090745;28;20426;-59
2021/07/18 08:21:02;;;;;;;5.60;2.13;;;33.30;60.80;;;;;;5091676;28;20428;-58
2021/07/18 08:23:29;;;;;;;6.95;2.70;;;33.20;60.80;;;;;;5091376;28;20414;-62
2021/07/18 08:25:55;;;;;;;7.40;2.60;;;32.70;61.80;;;;;;5091992;28;20375;-59
2021/07/18 08:28:22;;;;;;;7.10;2.33;;;33.00;61.40;;;;;;5091774;28;20397;-59
2021/07/18 08:30:48;;;;;;;8.25;2.63;;;33.30;60.90;;;;;;5089791;28;20425;-59
2021/07/18 08:33:14;;;;;;;5.50;2.20;;;33.30;60.50;;;;;;5091949;28;20417;-60
2021/07/18 08:35:39;;;;;;;6.03;2.40;;;33.10;60.70;;;;;;5087872;28;20737;-59
2021/07/18 08:38:06;;;;;;;7.40;2.20;;;33.20;60.30;;;;;;5091284;28;20410;-60
2021/07/18 08:40:37;;;;;;;7.22;2.10;;;33.50;60.70;;;;;;5090757;28;20739;-60
2021/07/18 08:43:04;;;;;;;6.65;2.10;;;33.80;59.80;;;;;;5087585;28;20554;-60
2021/07/18 08:45:30;;;;;;;5.90;2.40;;;33.90;60.50;;;;;;5091237;28;20370;-62
2021/07/18 08:47:56;;;;;;;6.97;2.25;;;34.10;58.60;;;;;;5075974;28;20442;-58
2021/07/18 08:50:22;;;;;;;8.43;2.90;;;33.90;59.10;;;;;;5071565;28;20392;-59
2021/07/18 08:52:55;;;;;;;7.80;2.75;;;34.00;59.00;;;;;;5088404;28;21039;-59
2021/07/18 08:55:22;;;;;;;7.15;2.80;;;33.40;59.90;;;;;;5079852;28;20403;-58
2021/07/18 08:57:49;;;;;;;6.38;2.50;;;34.40;58.50;;;;;;5101145;28;20405;-59
2021/07/18 09:00:15;;;;;;;6.20;2.70;;;34.30;58.50;;;;;;5101761;28;20892;-59
2021/07/18 09:02:41;;;;;;;6.65;2.33;;;33.70;59.90;;;;;;5099335;28;20382;-59
2021/07/18 09:05:08;;;;;;;7.20;2.80;;;33.40;61.20;;;;;;5091320;28;20391;-59
2021/07/18 09:07:46;;;;;;;8.85;2.85;;;33.70;60.40;;;;;;5088140;28;20864;-59
2021/07/18 09:10:13;;;;;;;6.60;2.78;;;34.50;58.20;;;;;;5103188;28;20396;-59
2021/07/18 09:12:41;;;;;;;6.50;2.72;;;34.80;59.30;;;;;;5093074;28;20410;-60
2021/07/18 09:15:08;;;;;;;7.07;2.50;;;35.40;57.80;;;;;;5101944;28;20384;-59
2021/07/18 09:17:35;;;;;;;7.88;2.60;;;36.20;56.40;;;;;;5096131;28;20433;-59
2021/07/18 09:20:15;;;;;;;12.25;11.25;;;36.50;56.30;;;;;;5108088;28;20380;-59
2021/07/18 09:22:41;;;;;;;9.48;7.82;;;36.20;55.50;;;;;;5094702;28;20397;-59
2021/07/18 09:25:07;;;;;;;8.93;6.85;;;36.30;55.40;;;;;;5101603;28;20385;-59
2021/07/18 09:27:35;;;;;;;7.18;2.78;;;35.50;56.30;;;;;;5091024;28;20392;-58
2021/07/18 09:30:08;;;;;;;7.53;4.38;;;34.70;57.50;;;;;;5102605;28;20465;-59
2021/07/18 09:32:35;;;;;;;9.00;8.10;;;34.60;58.60;;;;;;5093619;28;20404;-58
2021/07/18 09:35:22;;;;;;;8.80;7.13;;;36.00;56.80;;;;;;5107302;28;20384;-58
2021/07/18 09:37:49;;;;;;;9.53;6.27;;;35.40;56.80;;;;;;5090160;28;20413;-59
2021/07/18 09:40:24;;;;;;;7.25;5.05;;;34.80;57.80;;;;;;5091565;28;20378;-58
2021/07/18 09:42:56;;;;;;;7.90;5.13;;;34.20;58.20;;;;;;5091128;28;21048;-57
2021/07/18 09:45:23;;;;;;;10.20;2.50;;;34.20;58.80;;;;;;5107176;28;20380;-57
2021/07/18 09:47:54;;;;;;;8.10;2.40;;;34.20;58.70;;;;;;5079531;28;20595;-59
2021/07/18 09:50:21;;;;;;;10.05;4.20;;;34.20;58.20;;;;;;5089138;28;20488;-57
2021/07/18 09:52:49;;;;;;;10.18;8.77;;;33.50;59.30;;;;;;5083524;28;20760;-57
2021/07/18 09:55:22;;;;;;;7.80;5.10;;;33.30;61.40;;;;;;5088043;28;20414;-58
2021/07/18 09:57:52;;;;;;;7.22;3.05;;;33.20;62.30;;;;;;5080345;28;20503;-57
2021/07/18 10:00:20;;;;;;;7.35;4.43;;;33.50;60.40;;;;;;5085255;28;20402;-58
2021/07/18 10:02:45;;;;;;;10.80;8.95;;;34.00;60.00;;;;;;5083630;28;20389;-57
2021/07/18 10:05:31;;;;;;;8.13;5.20;;;33.60;60.00;;;;;;5103190;28;20384;-58
2021/07/18 10:08:10;;;;;;;8.30;7.27;;;34.40;58.70;;;;;;5099465;28;20794;-58
2021/07/18 10:10:38;;;;;;;8.00;7.20;;;35.60;57.20;;;;;;5090702;28;20444;-57
2021/07/18 10:13:05;;;;;;;9.23;6.03;;;35.50;57.00;;;;;;5108758;28;20847;-57
2021/07/18 10:15:32;;;;;;;8.37;4.70;;;34.60;58.00;;;;;;5096658;28;20413;-57
2021/07/18 10:17:58;;;;;;;10.07;5.20;;;33.60;59.80;;;;;;5089887;28;20402;-57
2021/07/18 10:20:25;;;;;;;6.70;4.67;;;33.60;58.90;;;;;;5089771;28;20374;-57
2021/07/18 10:22:53;;;;;;;8.90;4.80;;;33.70;58.90;;;;;;5089389;28;20434;-57
2021/07/18 10:25:19;;;;;;;8.10;5.80;;;34.60;58.60;;;;;;5089653;28;20482;-57
2021/07/18 10:27:46;;;;;;;17.88;16.48;;;34.40;59.00;;;;;;5088781;28;20915;-57
2021/07/18 10:30:14;;;;;;;7.10;5.15;;;34.10;58.70;;;;;;5089734;28;20383;-57
2021/07/18 10:32:42;;;;;;;7.40;4.70;;;32.90;60.90;;;;;;5088539;28;20477;-58
2021/07/18 10:35:10;;;;;;;7.82;4.38;;;32.80;61.20;;;;;;5089330;28;20374;-59
2021/07/18 10:37:40;;;;;;;7.20;4.03;;;33.50;61.00;;;;;;5088482;28;20410;-58
2021/07/18 10:40:22;;;;;;;7.00;4.30;;;32.80;62.20;;;;;;5088876;28;20482;-59
2021/07/18 10:42:51;;;;;;;7.90;5.20;;;31.60;63.60;;;;;;5088442;28;20709;-60
2021/07/18 10:45:21;;;;;;;7.50;3.67;;;30.50;66.10;;;;;;5088460;28;20414;-59
2021/07/18 10:48:07;;;;;;;8.63;4.45;;;29.90;69.60;;;;;;5092978;28;20499;-58
2021/07/18 10:50:52;;;;;;;9.13;5.07;;;29.90;69.90;;;;;;5077286;28;20387;-58
2021/07/18 10:53:26;;;;;;;9.13;4.30;;;29.10;71.70;;;;;;5078411;28;20390;-59
2021/07/18 10:55:54;;;;;;;7.28;4.03;;;29.20;73.20;;;;;;5076006;28;20405;-59
2021/07/18 10:58:40;;;;;;;8.85;4.47;;;29.20;71.60;;;;;;5080961;28;20414;-59
2021/07/18 11:01:10;;;;;;;8.88;2.90;;;28.60;72.90;;;;;;5090968;28;20395;-58
2021/07/18 11:03:40;;;;;;;9.05;2.70;;;28.30;74.10;;;;;;5104093;28;20442;-58
2021/07/18 11:06:20;;;;;;;8.75;2.90;;;28.70;74.50;;;;;;5097972;28;20384;-58
2021/07/18 11:09:14;;;;;;;7.43;2.80;;;28.60;73.80;;;;;;5087290;28;20871;-59
2021/07/18 11:11:44;;;;;;;7.97;3.00;;;29.20;73.40;;;;;;5078442;28;20396;-58
2021/07/18 11:14:34;;;;;;;7.70;2.80;;;29.30;72.30;;;;;;5100138;28;20376;-60
2021/07/18 11:17:02;;;;;;;7.75;2.92;;;29.10;72.70;;;;;;5086190;28;20531;-60
2021/07/18 11:19:37;;;;;;;7.22;2.78;;;29.20;74.40;;;;;;5084888;28;20414;-58
2021/07/18 11:22:10;;;;;;;7.05;3.35;;;29.40;72.70;;;;;;5090264;28;20405;-59
2021/07/18 11:24:48;;;;;;;8.00;2.97;;;28.80;74.20;;;;;;5079449;28;20441;-58
2021/07/18 11:27:34;;;;;;;7.15;3.40;;;28.50;75.60;;;;;;5086097;28;20953;-59
2021/07/18 11:30:04;;;;;;;7.20;3.63;;;28.70;78.00;;;;;;5085493;28;20392;-59
2021/07/18 11:32:40;;;;;;;10.73;4.30;;;28.60;75.70;;;;;;5090287;28;20396;-57
2021/07/18 11:35:18;;;;;;;8.20;4.05;;;28.40;75.70;;;;;;5097850;28;20391;-59
2021/07/18 11:37:47;;;;;;;8.68;3.97;;;28.60;76.60;;;;;;5089970;28;20952;-58
2021/07/18 11:40:13;;;;;;;10.82;4.85;;;28.90;76.50;;;;;;5094992;28;20386;-59
2021/07/18 11:42:39;;;;;;;8.00;4.20;;;29.30;75.30;;;;;;5087580;28;20409;-59
2021/07/18 11:45:09;;;;;;;9.57;4.67;;;29.50;73.40;;;;;;5098497;28;20434;-60
2021/07/18 11:47:35;;;;;;;10.30;4.15;;;29.30;72.30;;;;;;5086251;28;20402;-59
2021/07/18 11:50:00;;;;;;;10.75;4.88;;;29.10;74.30;;;;;;5091086;28;20396;-58
2021/07/18 11:52:26;;;;;;;9.18;4.82;;;29.10;75.70;;;;;;5092206;28;20372;-59
2021/07/18 11:54:54;;;;;;;9.60;5.03;;;29.10;73.70;;;;;;5103455;28;21053;-59
2021/07/18 11:57:20;;;;;;;10.80;5.63;;;28.60;75.40;;;;;;5104957;28;20430;-59
2021/07/18 11:59:51;;;;;;;11.70;5.30;;;28.90;74.20;;;;;;5096147;28;20386;-58
2021/07/18 12:02:17;;;;;;;10.32;4.90;;;29.30;74.50;;;;;;5074632;28;20498;-60
2021/07/18 12:04:43;;;;;;;8.50;4.40;;;29.80;74.10;;;;;;5086387;28;20473;-59
2021/07/18 12:07:11;;;;;;;10.15;5.25;;;29.90;72.80;;;;;;5103172;28;20929;-61
2021/07/18 12:09:40;;;;;;;10.43;4.97;;;30.00;71.90;;;;;;5091127;28;20420;-63
2021/07/18 12:12:10;;;;;;;12.57;5.10;;;29.80;72.70;;;;;;5101571;28;20378;-61
2021/07/18 12:14:36;;;;;;;12.07;5.20;;;29.80;73.60;;;;;;5079770;28;20395;-59
2021/07/18 12:17:04;;;;;;;11.23;5.30;;;30.00;72.90;;;;;;5084355;28;20427;-60
2021/07/18 12:19:32;;;;;;;10.55;5.63;;;29.80;72.40;;;;;;5106288;28;20876;-58
2021/07/18 12:22:00;;;;;;;9.88;4.90;;;29.30;75.70;;;;;;5095120;28;20945;-61
2021/07/18 12:24:28;;;;;;;10.82;5.40;;;29.30;75.80;;;;;;5104991;28;20413;-61
2021/07/18 12:26:53;;;;;;;12.05;6.53;;;29.30;75.00;;;;;;5092397;28;20873;-61
2021/07/18 12:29:21;;;;;;;11.43;5.80;;;29.30;74.90;;;;;;5098819;28;20942;-59
2021/07/18 12:31:49;;;;;;;10.03;6.00;;;29.30;74.00;;;;;;5092521;28;20501;-62
2021/07/18 12:34:18;;;;;;;13.33;6.30;;;29.30;73.80;;;;;;5091909;28;20388;-61
2021/07/18 12:37:03;;;;;;;12.93;7.50;;;29.60;75.10;;;;;;5092613;28;20451;-61
2021/07/18 12:39:37;;;;;;;12.23;7.00;;;29.70;75.90;;;;;;5081536;28;20453;-60
2021/07/18 12:42:27;;;;;;;13.32;8.00;;;29.80;73.90;;;;;;5078584;28;20421;-60